Time;durP1;ratioP1;P1;durP2;ratioP2;P2;SDS_P1;SDS_P2;PMS_P1;PMS_P2;Temp;Humidity;BMP_temperature;BMP_pressure;BME280_temperature;BME280_humidity;BME280_pressure;Samples;Min_cycle;Max_cycle;Signal;HPM_P1;HPM_P2
2022/12/10 00:00:35;;;;;;;26.67;13.30;;;3.90;1.00;;;;;;5038505;28;20831;-70
2022/12/10 00:03:01;;;;;;;20.33;12.90;;;3.90;1.00;;;;;;5033966;28;20221;-70
2022/12/10 00:05:27;;;;;;;22.57;13.30;;;3.90;1.00;;;;;;5022861;28;20180;-70
2022/12/10 00:07:52;;;;;;;20.67;12.73;;;3.90;1.00;;;;;;5036494;28;20881;-70
2022/12/10 00:10:18;;;;;;;21.97;13.83;;;3.80;1.00;;;;;;5029254;28;20185;-70
2022/12/10 00:12:43;;;;;;;22.13;13.10;;;3.70;1.00;;;;;;5023564;28;20189;-68
2022/12/10 00:15:10;;;;;;;25.33;14.37;;;3.70;1.00;;;;;;5033579;28;20169;-69
2022/12/10 00:17:35;;;;;;;23.07;13.63;;;3.60;1.00;;;;;;5038929;28;20276;-70
2022/12/10 00:20:01;;;;;;;22.87;13.33;;;3.60;1.00;;;;;;5033860;28;20884;-73
2022/12/10 00:22:26;;;;;;;23.13;13.87;;;3.60;1.00;;;;;;5032628;28;20204;-70
2022/12/10 00:24:52;;;;;;;23.40;13.97;;;3.60;1.00;;;;;;5040552;28;20170;-70
2022/12/10 00:27:17;;;;;;;28.87;14.10;;;3.60;1.00;;;;;;5037919;28;20173;-70
2022/12/10 00:29:43;;;;;;;24.80;14.57;;;3.60;1.00;;;;;;5032117;28;20202;-70
2022/12/10 00:32:09;;;;;;;22.93;14.20;;;3.70;1.00;;;;;;5030232;28;20177;-70
2022/12/10 00:34:34;;;;;;;22.50;13.67;;;3.70;1.00;;;;;;5039591;28;20196;-69
2022/12/10 00:37:00;;;;;;;24.67;13.03;;;3.70;1.00;;;;;;5035518;28;20302;-72
2022/12/10 00:39:26;;;;;;;23.03;13.80;;;3.70;1.00;;;;;;5043198;28;20309;-69
2022/12/10 00:41:51;;;;;;;21.40;13.23;;;3.60;1.00;;;;;;5029976;28;20251;-70
2022/12/10 00:44:17;;;;;;;21.50;13.77;;;3.70;1.00;;;;;;5037430;28;20877;-69
2022/12/10 00:46:43;;;;;;;23.57;13.67;;;3.70;1.00;;;;;;5033359;28;20223;-70
2022/12/10 00:49:09;;;;;;;23.07;13.50;;;3.70;1.00;;;;;;5044431;28;20193;-70
2022/12/10 00:51:34;;;;;;;24.80;14.50;;;3.70;1.00;;;;;;5029920;28;20178;-69
2022/12/10 00:54:00;;;;;;;22.80;13.53;;;3.70;1.00;;;;;;5032851;28;20235;-70
2022/12/10 00:56:32;;;;;;;25.33;14.20;;;3.70;1.00;;;;;;5030714;28;20197;-70
2022/12/10 00:58:58;;;;;;;24.30;14.90;;;3.70;1.00;;;;;;5042317;28;20197;-69
2022/12/10 01:01:26;;;;;;;27.17;15.30;;;3.70;1.00;;;;;;5034360;28;20915;-70
2022/12/10 01:03:56;;;;;;;22.67;14.13;;;3.70;1.00;;;;;;5042818;28;20482;-70
2022/12/10 01:06:24;;;;;;;22.20;14.27;;;3.70;1.00;;;;;;5044532;28;20479;-72
2022/12/10 01:08:53;;;;;;;22.90;13.37;;;3.70;1.00;;;;;;5045790;28;20538;-70
2022/12/10 01:11:20;;;;;;;25.40;13.50;;;3.60;1.00;;;;;;5030893;28;20889;-70
2022/12/10 01:13:47;;;;;;;25.20;13.47;;;3.60;1.00;;;;;;5030835;28;20436;-70
2022/12/10 01:16:16;;;;;;;27.57;15.60;;;3.50;1.00;;;;;;5039979;28;20506;-70
2022/12/10 01:18:41;;;;;;;23.80;14.90;;;3.50;1.00;;;;;;5045488;28;20782;-69
2022/12/10 01:21:11;;;;;;;25.87;14.37;;;3.60;1.00;;;;;;5030058;28;20455;-70
2022/12/10 01:23:39;;;;;;;22.93;14.00;;;3.60;1.00;;;;;;5040688;28;20202;-71
2022/12/10 01:26:08;;;;;;;24.27;14.83;;;3.70;1.00;;;;;;5039298;28;20462;-70
2022/12/10 01:28:35;;;;;;;23.50;13.47;;;3.70;1.00;;;;;;5023610;28;20457;-69
2022/12/10 01:31:08;;;;;;;25.30;13.87;;;3.70;1.00;;;;;;5047726;28;20752;-70
2022/12/10 01:33:35;;;;;;;21.67;13.60;;;3.70;1.00;;;;;;5029513;28;20460;-70
2022/12/10 01:36:05;;;;;;;26.33;14.57;;;3.60;1.00;;;;;;5022749;28;20428;-70
2022/12/10 01:38:31;;;;;;;25.50;14.67;;;3.70;1.00;;;;;;5031931;28;20527;-71
2022/12/10 01:40:58;;;;;;;24.50;14.40;;;3.70;1.00;;;;;;5031586;28;20528;-72
2022/12/10 01:43:24;;;;;;;22.33;14.17;;;3.70;1.00;;;;;;5030204;28;20240;-70
2022/12/10 01:45:49;;;;;;;29.33;15.57;;;3.70;1.00;;;;;;5039724;28;20832;-71
2022/12/10 01:48:15;;;;;;;27.00;14.93;;;3.70;1.00;;;;;;5035606;28;20201;-69
2022/12/10 01:50:40;;;;;;;24.53;13.87;;;3.70;1.00;;;;;;5039058;28;20174;-70
2022/12/10 01:53:06;;;;;;;24.23;13.67;;;3.70;1.00;;;;;;5029455;28;20656;-70
2022/12/10 01:55:43;;;;;;;23.87;14.43;;;3.60;1.00;;;;;;5038995;28;20181;-71
2022/12/10 01:58:09;;;;;;;24.30;14.80;;;3.50;1.00;;;;;;5033370;28;20202;-70
2022/12/10 02:00:43;;;;;;;25.43;14.27;;;3.50;1.00;;;;;;5033206;28;20957;-71
2022/12/10 02:03:17;;;;;;;26.90;15.47;;;3.50;1.00;;;;;;5042463;28;20454;-70
2022/12/10 02:06:06;;;;;;;33.03;16.23;;;3.60;1.00;;;;;;5041550;28;20512;-71
2022/12/10 02:08:45;;;;;;;24.93;14.50;;;3.60;1.00;;;;;;5037571;28;20800;-70
2022/12/10 02:11:27;;;;;;;26.50;14.80;;;3.60;1.00;;;;;;5032137;28;20998;-70
2022/12/10 02:14:20;;;;;;;21.50;13.10;;;3.60;1.00;;;;;;5029004;28;20440;-70
2022/12/10 02:17:10;;;;;;;26.60;14.97;;;3.60;1.00;;;;;;5019416;28;20486;-70
2022/12/10 02:19:50;;;;;;;25.10;15.00;;;3.50;1.00;;;;;;5037496;28;20448;-72
2022/12/10 02:22:18;;;;;;;23.47;13.57;;;3.50;1.00;;;;;;5036581;28;20456;-69
2022/12/10 02:24:47;;;;;;;24.80;13.83;;;3.50;1.00;;;;;;5047819;28;20490;-69
2022/12/10 02:27:32;;;;;;;24.80;14.40;;;3.50;1.00;;;;;;5032712;28;20416;-69
2022/12/10 02:30:00;;;;;;;22.07;14.57;;;3.50;1.00;;;;;;5028549;28;20432;-70
2022/12/10 02:32:32;;;;;;;23.20;13.70;;;3.50;1.00;;;;;;5037086;28;20447;-70
2022/12/10 02:35:03;;;;;;;23.90;14.63;;;3.40;1.00;;;;;;5048604;28;20410;-71
2022/12/10 02:37:37;;;;;;;22.50;13.47;;;3.50;1.00;;;;;;5031124;28;20405;-70
2022/12/10 02:40:07;;;;;;;22.57;14.00;;;3.50;1.00;;;;;;5029835;28;20444;-71
2022/12/10 02:42:37;;;;;;;24.73;14.70;;;3.60;1.00;;;;;;5023824;28;20484;-70
2022/12/10 02:45:05;;;;;;;28.70;14.67;;;3.60;1.00;;;;;;5037487;28;20441;-70
2022/12/10 02:47:31;;;;;;;25.53;14.53;;;3.50;1.00;;;;;;5045664;28;20435;-68
2022/12/10 02:49:58;;;;;;;24.70;13.73;;;3.50;1.00;;;;;;5031640;28;20451;-69
2022/12/10 02:52:25;;;;;;;29.13;14.63;;;3.50;1.00;;;;;;5040221;28;20814;-71
2022/12/10 02:54:51;;;;;;;22.63;14.30;;;3.50;1.00;;;;;;5042750;28;20910;-70
2022/12/10 02:57:32;;;;;;;26.40;14.03;;;3.40;1.00;;;;;;5029368;28;20424;-69
2022/12/10 03:00:16;;;;;;;24.77;14.60;;;3.50;1.00;;;;;;5039353;28;20450;-70
2022/12/10 03:03:24;;;;;;;27.83;15.77;;;3.50;1.00;;;;;;5036609;28;20448;-70
2022/12/10 03:06:03;;;;;;;24.80;14.43;;;3.50;1.00;;;;;;5041637;28;20460;-69
2022/12/10 03:08:47;;;;;;;23.87;13.87;;;3.50;1.00;;;;;;5038670;28;20874;-69
2022/12/10 03:11:19;;;;;;;27.70;14.57;;;3.50;1.00;;;;;;5026181;28;20479;-67
2022/12/10 03:14:02;;;;;;;26.20;15.00;;;3.40;1.00;;;;;;5029906;28;20534;-68
2022/12/10 03:16:34;;;;;;;26.73;15.77;;;3.40;1.00;;;;;;5032757;28;20962;-67
2022/12/10 03:19:04;;;;;;;24.10;15.07;;;3.40;1.00;;;;;;5028805;28;20475;-67
2022/12/10 03:21:32;;;;;;;29.80;15.60;;;3.30;1.00;;;;;;5035256;28;20443;-67
2022/12/10 03:23:58;;;;;;;29.73;15.63;;;3.60;1.00;;;;;;5042148;28;20466;-67
2022/12/10 03:26:25;;;;;;;24.87;14.00;;;3.30;1.00;;;;;;5039712;28;20528;-67
2022/12/10 03:28:55;;;;;;;25.90;14.50;;;3.30;1.00;;;;;;5039552;28;20251;-67
2022/12/10 03:31:21;;;;;;;25.70;14.50;;;3.30;1.00;;;;;;5046088;28;20436;-67
2022/12/10 03:33:48;;;;;;;27.40;14.50;;;3.30;1.00;;;;;;5041289;28;20633;-66
2022/12/10 03:36:15;;;;;;;26.80;14.97;;;3.30;1.00;;;;;;5042514;28;20468;-66
2022/12/10 03:38:42;;;;;;;25.13;13.87;;;3.40;1.00;;;;;;5029064;28;20467;-67
2022/12/10 03:41:08;;;;;;;25.20;14.50;;;3.30;1.00;;;;;;5036401;28;20463;-67
2022/12/10 03:43:34;;;;;;;25.83;14.70;;;3.40;1.00;;;;;;5031467;28;20492;-67
2022/12/10 03:45:59;;;;;;;26.27;15.50;;;3.30;1.00;;;;;;5035531;28;20194;-67
2022/12/10 03:48:25;;;;;;;28.43;15.60;;;3.30;1.00;;;;;;5036069;28;20264;-68
2022/12/10 03:50:50;;;;;;;32.50;16.20;;;3.30;1.00;;;;;;5027748;28;20178;-67
2022/12/10 03:53:16;;;;;;;28.30;16.37;;;3.30;1.00;;;;;;5035985;28;20197;-67
2022/12/10 03:55:41;;;;;;;25.30;14.53;;;3.30;1.00;;;;;;5046885;28;20251;-67
2022/12/10 03:58:07;;;;;;;27.60;14.57;;;3.30;1.00;;;;;;5027878;28;20202;-67
2022/12/10 04:00:32;;;;;;;27.93;15.63;;;3.30;1.00;;;;;;5028867;28;20220;-67
2022/12/10 04:02:58;;;;;;;27.53;15.57;;;3.30;1.00;;;;;;5030582;28;20250;-67
2022/12/10 04:05:23;;;;;;;25.47;14.77;;;3.30;1.00;;;;;;5040757;28;20176;-67
2022/12/10 04:07:49;;;;;;;30.87;15.87;;;3.20;1.00;;;;;;5029787;28;20181;-69
2022/12/10 04:10:14;;;;;;;29.03;16.30;;;3.20;1.00;;;;;;5035696;28;20178;-67
2022/12/10 04:12:40;;;;;;;25.43;14.80;;;3.70;1.00;;;;;;5023214;28;20181;-67
2022/12/10 04:17:50;;;;;;;30.37;15.00;;;3.20;1.00;;;;;;5028238;28;20208;-67
2022/12/10 04:28:29;;;;;;;25.47;15.00;;;3.20;1.00;;;;;;5036474;28;20443;-68
2022/12/10 04:30:55;;;;;;;28.93;16.20;;;3.20;1.00;;;;;;5045028;28;20763;-68
2022/12/10 04:33:20;;;;;;;27.57;16.03;;;3.20;1.00;;;;;;5034308;28;20173;-66
2022/12/10 04:35:46;;;;;;;27.50;15.93;;;3.20;1.00;;;;;;5040109;28;20193;-67
2022/12/10 04:38:11;;;;;;;29.20;15.77;;;3.20;1.00;;;;;;5029096;28;20271;-67
2022/12/10 04:40:37;;;;;;;25.87;14.77;;;3.20;1.00;;;;;;5028977;28;20181;-70
2022/12/10 04:43:02;;;;;;;30.80;16.77;;;3.30;1.00;;;;;;5025130;28;20228;-67
2022/12/10 04:45:28;;;;;;;30.77;16.70;;;3.20;1.00;;;;;;5037720;28;20200;-67
2022/12/10 04:47:53;;;;;;;29.90;16.70;;;3.20;1.00;;;;;;5040085;28;20231;-67
2022/12/10 04:50:19;;;;;;;30.57;15.80;;;3.20;1.00;;;;;;5042986;28;20185;-66
2022/12/10 04:52:44;;;;;;;28.53;16.40;;;3.20;1.00;;;;;;5041599;28;20686;-67
2022/12/10 04:55:10;;;;;;;27.00;14.63;;;3.20;1.00;;;;;;5032656;28;20581;-68
2022/12/10 04:57:36;;;;;;;32.13;16.80;;;3.20;1.00;;;;;;5027479;28;20568;-67
2022/12/10 05:00:02;;;;;;;30.33;16.13;;;3.20;1.00;;;;;;5028794;28;20194;-68
2022/12/10 05:02:28;;;;;;;29.23;16.20;;;2.90;1.00;;;;;;5033079;28;20303;-68
2022/12/10 05:04:53;;;;;;;25.10;15.60;;;3.20;1.00;;;;;;5030728;28;20974;-67
2022/12/10 05:07:19;;;;;;;28.90;16.43;;;3.20;1.00;;;;;;5033594;28;20252;-67
2022/12/10 05:09:44;;;;;;;29.93;17.37;;;3.20;1.00;;;;;;5041254;28;20227;-67
2022/12/10 05:12:10;;;;;;;30.70;16.10;;;3.20;1.00;;;;;;5030331;28;20177;-67
2022/12/10 05:14:35;;;;;;;29.17;16.47;;;3.10;1.00;;;;;;5039980;28;20713;-66
2022/12/10 05:17:01;;;;;;;35.93;16.13;;;3.10;1.00;;;;;;5036348;28;20178;-69
2022/12/10 05:19:26;;;;;;;28.97;16.20;;;3.10;1.00;;;;;;5032208;28;20676;-67
2022/12/10 05:24:36;;;;;;;30.67;16.67;;;3.10;1.00;;;;;;5044195;28;20230;-66
2022/12/10 05:27:02;;;;;;;28.30;16.33;;;3.10;1.00;;;;;;5047918;28;20436;-67
2022/12/10 05:29:28;;;;;;;29.23;16.37;;;3.10;1.00;;;;;;5037612;28;20457;-68
2022/12/10 05:31:53;;;;;;;30.33;17.20;;;3.10;1.00;;;;;;5040869;28;20231;-67
2022/12/10 05:34:19;;;;;;;30.37;16.90;;;3.20;1.00;;;;;;5048624;28;20189;-67
2022/12/10 05:36:44;;;;;;;33.87;17.67;;;3.20;1.00;;;;;;5035262;28;20179;-67
2022/12/10 05:39:10;;;;;;;30.40;16.10;;;3.10;1.00;;;;;;5035908;28;20674;-67
2022/12/10 05:41:38;;;;;;;32.97;16.17;;;3.10;1.00;;;;;;5028815;28;20217;-67
2022/12/10 05:44:04;;;;;;;28.10;15.60;;;3.10;1.00;;;;;;5034032;28;20227;-67
2022/12/10 05:46:31;;;;;;;32.27;17.83;;;3.20;1.00;;;;;;5034241;28;20419;-67
2022/12/10 05:48:58;;;;;;;30.20;17.00;;;3.20;1.00;;;;;;5042865;28;20440;-67
2022/12/10 05:51:27;;;;;;;29.47;16.30;;;3.10;1.00;;;;;;5035584;28;20449;-67
2022/12/10 05:53:53;;;;;;;35.27;16.90;;;3.10;1.00;;;;;;5042578;28;20482;-67
2022/12/10 05:56:21;;;;;;;32.70;16.63;;;3.10;1.00;;;;;;5046202;28;20407;-68
2022/12/10 05:58:48;;;;;;;32.53;16.70;;;3.10;1.00;;;;;;5031256;28;20198;-67
2022/12/10 06:01:16;;;;;;;28.60;17.00;;;3.10;1.00;;;;;;5030466;28;20424;-68
2022/12/10 06:03:42;;;;;;;27.57;16.13;;;3.20;1.00;;;;;;5027789;28;20472;-67
2022/12/10 06:06:08;;;;;;;31.93;17.33;;;3.10;1.00;;;;;;5037608;28;20421;-68
2022/12/10 06:08:35;;;;;;;29.00;15.97;;;3.00;1.00;;;;;;5033894;28;20221;-68
2022/12/10 06:11:05;;;;;;;32.23;17.13;;;3.00;1.00;;;;;;5024784;28;20496;-67
2022/12/10 06:13:31;;;;;;;29.67;16.70;;;2.90;1.00;;;;;;5027058;28;20519;-67
2022/12/10 06:15:56;;;;;;;32.90;16.90;;;2.90;1.00;;;;;;5037742;28;20974;-67
2022/12/10 06:18:22;;;;;;;31.30;16.20;;;2.90;1.00;;;;;;5031071;28;20726;-67
2022/12/10 06:20:48;;;;;;;30.90;15.80;;;3.10;1.00;;;;;;5023620;28;20186;-67
2022/12/10 06:23:13;;;;;;;30.50;16.90;;;3.00;1.00;;;;;;5038820;28;20243;-67
2022/12/10 06:25:39;;;;;;;26.53;16.00;;;3.00;1.00;;;;;;5042873;28;20173;-67
2022/12/10 06:28:06;;;;;;;32.70;17.20;;;3.10;1.00;;;;;;5038761;28;20235;-68
2022/12/10 06:30:33;;;;;;;31.83;17.53;;;3.10;1.00;;;;;;5043032;28;20596;-67
2022/12/10 06:32:59;;;;;;;32.40;16.60;;;3.10;1.00;;;;;;5041824;28;20902;-67
2022/12/10 06:35:24;;;;;;;30.80;16.63;;;3.00;1.00;;;;;;5039997;28;20444;-68
2022/12/10 06:37:50;;;;;;;30.27;16.53;;;3.30;1.00;;;;;;5027767;28;20518;-67
2022/12/10 06:40:16;;;;;;;32.57;17.10;;;3.00;1.00;;;;;;5030854;28;20231;-68
2022/12/10 06:42:41;;;;;;;32.50;17.33;;;2.40;1.00;;;;;;5026075;28;20232;-67
2022/12/10 06:45:07;;;;;;;29.30;16.37;;;3.00;1.00;;;;;;5037599;28;20170;-66
2022/12/10 06:47:33;;;;;;;32.27;16.10;;;2.90;1.00;;;;;;5037542;28;20170;-66
2022/12/10 06:49:59;;;;;;;28.60;16.23;;;3.00;1.00;;;;;;5034882;28;20451;-68
2022/12/10 06:52:24;;;;;;;32.23;17.00;;;3.40;1.00;;;;;;5041244;28;20517;-69
2022/12/10 06:54:50;;;;;;;30.83;16.47;;;2.90;1.00;;;;;;5032252;28;20706;-67
2022/12/10 06:57:16;;;;;;;27.80;16.10;;;2.80;1.00;;;;;;5035532;28;20659;-67
2022/12/10 06:59:41;;;;;;;30.80;16.70;;;2.80;1.00;;;;;;5030652;28;20198;-67
2022/12/10 07:02:10;;;;;;;40.97;21.30;;;2.80;1.00;;;;;;5042413;28;20268;-68
2022/12/10 07:04:36;;;;;;;57.27;26.40;;;2.80;1.00;;;;;;5037797;28;20177;-67
2022/12/10 07:07:02;;;;;;;151.73;45.40;;;2.80;1.00;;;;;;5042158;28;20924;-68
2022/12/10 07:09:27;;;;;;;132.73;48.30;;;2.80;1.00;;;;;;5033595;28;20240;-67
2022/12/10 07:11:53;;;;;;;40.83;20.70;;;2.80;1.00;;;;;;5032227;28;20205;-66
2022/12/10 07:14:19;;;;;;;30.83;16.90;;;2.80;1.00;;;;;;5028682;28;20236;-67
2022/12/10 07:16:44;;;;;;;35.80;20.57;;;2.90;1.00;;;;;;5030008;28;20176;-67
2022/12/10 07:19:11;;;;;;;33.77;17.97;;;2.80;1.00;;;;;;5037286;28;20221;-68
2022/12/10 07:21:40;;;;;;;31.30;16.17;;;2.80;1.00;;;;;;5046187;28;20165;-67
2022/12/10 07:24:17;;;;;;;35.40;18.10;;;2.80;1.00;;;;;;5037281;28;20534;-68
2022/12/10 07:26:44;;;;;;;28.47;16.57;;;2.80;1.00;;;;;;5038069;28;20436;-68
2022/12/10 07:29:14;;;;;;;28.30;15.73;;;2.80;1.00;;;;;;5041712;28;20435;-67
2022/12/10 07:31:40;;;;;;;32.30;17.17;;;3.20;1.00;;;;;;5032765;28;20447;-70
2022/12/10 07:34:06;;;;;;;30.40;17.30;;;3.00;1.00;;;;;;5028203;28;20527;-69
2022/12/10 07:36:32;;;;;;;31.73;17.47;;;3.00;1.00;;;;;;5039359;28;20182;-68
2022/12/10 07:38:57;;;;;;;28.77;17.77;;;3.30;1.00;;;;;;5034257;28;20209;-68
2022/12/10 07:41:24;;;;;;;33.97;17.83;;;3.00;1.00;;;;;;5032520;28;20182;-69
2022/12/10 07:43:49;;;;;;;31.43;18.30;;;3.00;1.00;;;;;;5030229;28;20300;-68
2022/12/10 07:46:25;;;;;;;28.67;16.40;;;3.10;1.00;;;;;;5035692;28;20500;-70
2022/12/10 07:48:51;;;;;;;31.57;17.43;;;3.10;1.00;;;;;;5032008;28;20208;-68
2022/12/10 07:51:19;;;;;;;29.17;16.63;;;3.10;1.00;;;;;;5034203;28;20791;-68
2022/12/10 07:53:44;;;;;;;30.67;16.53;;;3.10;1.00;;;;;;5028052;28;20443;-68
2022/12/10 15:08:14;;;;;;;20.60;12.23;;;3.10;1.00;;;;;;5043220;28;20616;-70
2022/12/10 15:10:46;;;;;;;23.17;12.77;;;3.10;1.00;;;;;;5045964;28;20470;-71
2022/12/10 15:13:24;;;;;;;29.27;15.40;;;3.10;1.00;;;;;;5049419;28;20420;-71
2022/12/10 15:15:51;;;;;;;28.87;16.30;;;3.20;1.00;;;;;;5046059;28;20473;-72
2022/12/10 15:18:21;;;;;;;24.33;13.87;;;3.30;1.00;;;;;;5045330;28;20442;-71
2022/12/10 15:21:03;;;;;;;22.33;12.60;;;3.40;1.00;;;;;;5048444;22;20488;-73
2022/12/10 15:23:29;;;;;;;23.23;13.03;;;3.50;1.00;;;;;;5005307;28;20440;-74
2022/12/10 15:25:59;;;;;;;22.17;14.20;;;3.50;1.00;;;;;;5025321;28;20457;-74
2022/12/10 15:28:36;;;;;;;21.27;13.20;;;3.30;1.00;;;;;;5007489;28;20190;-72
2022/12/10 15:31:26;;;;;;;22.30;13.90;;;3.60;1.00;;;;;;4997630;28;20540;-74
2022/12/10 15:33:59;;;;;;;21.23;13.47;;;3.60;1.00;;;;;;5012728;28;20436;-73
2022/12/10 15:36:41;;;;;;;22.40;14.50;;;3.60;1.00;;;;;;5002178;28;20681;-73
2022/12/10 15:39:10;;;;;;;23.70;13.30;;;3.60;1.00;;;;;;4998605;28;20430;-73
2022/12/10 15:41:43;;;;;;;23.37;13.10;;;3.70;1.00;;;;;;5017507;28;20954;-72
2022/12/10 15:44:29;;;;;;;22.40;13.20;;;3.70;1.00;;;;;;5012161;28;20938;-74
2022/12/10 15:47:13;;;;;;;24.40;14.73;;;3.70;1.00;;;;;;5013353;28;20458;-76
2022/12/10 15:49:38;;;;;;;26.43;14.90;;;3.70;1.00;;;;;;5012849;28;20408;-72
2022/12/10 15:52:04;;;;;;;32.10;15.87;;;3.60;1.00;;;;;;5005827;28;20441;-72
2022/12/10 15:54:39;;;;;;;26.13;15.33;;;3.60;1.00;;;;;;5007304;28;20185;-73
2022/12/10 15:57:26;;;;;;;29.20;14.70;;;3.60;1.00;;;;;;5005221;28;20657;-72
2022/12/10 15:59:54;;;;;;;24.80;15.10;;;3.50;1.00;;;;;;5018345;28;20444;-72
2022/12/10 16:02:31;;;;;;;25.07;14.07;;;3.50;1.00;;;;;;5001808;28;20425;-72
2022/12/10 16:04:57;;;;;;;24.43;14.30;;;3.50;1.00;;;;;;5004611;28;20520;-70
2022/12/10 16:07:22;;;;;;;24.50;15.17;;;3.50;1.00;;;;;;5002051;28;21096;-73
2022/12/10 16:09:48;;;;;;;29.27;17.93;;;3.40;1.00;;;;;;5014509;28;20285;-72
2022/12/10 16:12:16;;;;;;;25.13;15.87;;;3.30;1.00;;;;;;5012360;28;20170;-70
2022/12/10 16:14:52;;;;;;;22.80;14.50;;;3.20;1.00;;;;;;5004079;28;20186;-71
2022/12/10 16:17:18;;;;;;;25.17;15.37;;;3.10;1.00;;;;;;5011314;28;20424;-70
2022/12/10 16:19:44;;;;;;;24.40;15.30;;;3.10;1.00;;;;;;5001084;28;20402;-71
2022/12/10 16:22:10;;;;;;;28.07;16.50;;;3.10;1.00;;;;;;5011796;28;20471;-71
2022/12/10 16:24:35;;;;;;;22.50;13.70;;;3.00;1.00;;;;;;4991845;28;20182;-72
2022/12/10 16:27:01;;;;;;;23.23;13.70;;;2.80;1.00;;;;;;4992080;28;20207;-70
2022/12/10 16:29:27;;;;;;;20.73;13.50;;;2.70;1.00;;;;;;4992848;28;20593;-72
2022/12/10 16:31:52;;;;;;;23.20;14.03;;;2.50;1.00;;;;;;4992582;28;20527;-70
2022/12/10 16:34:18;;;;;;;21.63;12.40;;;2.40;1.00;;;;;;4999124;28;20182;-73
2022/12/10 16:36:43;;;;;;;25.23;14.30;;;2.20;1.00;;;;;;4993756;28;20263;-71
2022/12/10 16:39:09;;;;;;;24.70;13.47;;;2.20;1.00;;;;;;5000697;28;20184;-71
2022/12/10 16:41:35;;;;;;;25.27;14.60;;;2.10;1.00;;;;;;5003491;28;20264;-71
2022/12/10 16:44:00;;;;;;;23.40;14.30;;;2.10;1.00;;;;;;4987967;28;20182;-73
2022/12/10 16:46:26;;;;;;;25.33;15.07;;;2.10;1.00;;;;;;4992869;28;20450;-70
2022/12/10 16:48:51;;;;;;;30.60;16.10;;;2.10;1.00;;;;;;4991822;28;20187;-71
2022/12/10 16:51:23;;;;;;;24.90;15.23;;;2.00;1.00;;;;;;4995985;28;20491;-71
2022/12/10 16:53:48;;;;;;;33.13;18.27;;;1.90;1.00;;;;;;4991027;28;20270;-69
2022/12/10 16:56:15;;;;;;;29.27;17.37;;;1.90;1.00;;;;;;5000843;28;20497;-70
2022/12/10 16:58:42;;;;;;;33.90;18.90;;;1.90;1.00;;;;;;5005151;28;20616;-72
2022/12/10 17:01:34;;;;;;;39.20;21.10;;;1.80;1.00;;;;;;5003371;28;20423;-70
2022/12/10 17:04:00;;;;;;;34.10;20.50;;;1.90;1.00;;;;;;4992466;28;20190;-70
2022/12/10 17:06:26;;;;;;;34.73;19.63;;;1.80;1.00;;;;;;4998542;28;20456;-70
2022/12/10 17:08:52;;;;;;;36.73;19.83;;;1.80;1.00;;;;;;5006362;28;20228;-73
2022/12/10 17:11:44;;;;;;;36.10;20.20;;;1.70;1.00;;;;;;5000485;28;20271;-69
2022/12/10 17:14:24;;;;;;;37.70;20.67;;;1.60;1.00;;;;;;4988939;28;20462;-70
2022/12/10 17:16:51;;;;;;;35.77;20.70;;;1.50;1.00;;;;;;4998696;28;20410;-70
2022/12/10 17:19:17;;;;;;;43.53;23.17;;;1.50;1.00;;;;;;4997684;28;20446;-70
2022/12/10 17:21:43;;;;;;;35.27;21.07;;;1.40;1.00;;;;;;5008616;28;20463;-70
2022/12/10 17:24:08;;;;;;;38.50;21.43;;;1.30;1.00;;;;;;4993080;28;20434;-72
2022/12/10 17:26:37;;;;;;;36.43;21.00;;;1.30;1.00;;;;;;5000363;28;20549;-71
2022/12/10 17:29:15;;;;;;;42.07;22.80;;;1.30;1.00;;;;;;4998169;28;20201;-70
2022/12/10 17:31:41;;;;;;;42.23;22.80;;;1.20;1.00;;;;;;4991672;28;20480;-70
2022/12/10 17:34:08;;;;;;;41.13;23.40;;;1.30;1.00;;;;;;4995038;28;20468;-70
2022/12/10 17:36:34;;;;;;;40.57;23.97;;;1.20;1.00;;;;;;4995011;28;20410;-71
2022/12/10 17:38:59;;;;;;;44.50;24.70;;;1.20;1.00;;;;;;4994474;28;20495;-70
2022/12/10 17:41:25;;;;;;;36.50;21.30;;;1.20;1.00;;;;;;5000786;28;20708;-71
2022/12/10 17:43:50;;;;;;;32.93;20.00;;;1.20;1.00;;;;;;5002869;28;20210;-70
2022/12/10 17:46:22;;;;;;;32.00;17.13;;;1.10;1.00;;;;;;4993618;28;20692;-71
2022/12/10 17:48:48;;;;;;;33.17;18.67;;;1.10;1.00;;;;;;4992969;28;20190;-72
2022/12/10 17:51:14;;;;;;;35.97;18.97;;;1.10;1.00;;;;;;4996630;28;20434;-71
2022/12/10 17:53:40;;;;;;;35.57;20.10;;;1.00;1.00;;;;;;4999397;28;20179;-71
2022/12/10 17:56:15;;;;;;;40.67;20.50;;;1.10;1.00;;;;;;5003939;28;20173;-72
2022/12/10 17:58:40;;;;;;;39.50;19.60;;;1.10;1.00;;;;;;5000260;28;20434;-75
2022/12/10 18:01:08;;;;;;;35.17;19.67;;;1.00;1.00;;;;;;4996641;28;20845;-72
2022/12/10 18:03:37;;;;;;;40.60;20.60;;;1.00;1.00;;;;;;4999220;28;20203;-72
2022/12/10 18:06:04;;;;;;;47.57;22.27;;;0.90;1.00;;;;;;4990137;28;20475;-75
2022/12/10 18:08:30;;;;;;;44.43;25.07;;;1.00;1.00;;;;;;4989737;28;20430;-75
2022/12/10 18:10:56;;;;;;;44.67;24.27;;;1.00;1.00;;;;;;4991147;28;20862;-72
2022/12/10 18:13:22;;;;;;;35.50;19.80;;;1.00;1.00;;;;;;4997234;28;20181;-72
2022/12/10 18:15:49;;;;;;;38.70;20.37;;;1.00;1.00;;;;;;4998965;28;20410;-72
2022/12/10 18:18:15;;;;;;;37.73;22.77;;;1.00;1.00;;;;;;4998384;28;20174;-72
2022/12/10 18:20:41;;;;;;;38.60;22.07;;;1.00;1.00;;;;;;4991251;28;20529;-72
2022/12/10 18:23:10;;;;;;;41.37;22.87;;;1.10;1.00;;;;;;4998014;28;20590;-72
2022/12/10 18:25:37;;;;;;;33.50;17.33;;;1.00;1.00;;;;;;4992785;28;20428;-74
2022/12/10 18:28:32;;;;;;;30.57;16.80;;;1.00;1.00;;;;;;4987155;28;20424;-72
2022/12/10 18:30:59;;;;;;;30.67;16.57;;;0.90;1.00;;;;;;4979962;28;20889;-75
2022/12/10 18:33:24;;;;;;;24.27;14.67;;;0.80;1.00;;;;;;4993513;28;20430;-73
2022/12/10 18:35:50;;;;;;;27.40;14.60;;;0.80;1.00;;;;;;4994831;28;20767;-72
2022/12/10 18:38:17;;;;;;;27.87;13.70;;;0.80;1.00;;;;;;5002518;28;20657;-72
2022/12/10 18:40:42;;;;;;;24.60;13.70;;;0.90;1.00;;;;;;5003577;28;20187;-72
2022/12/10 18:43:08;;;;;;;22.73;12.87;;;0.90;1.00;;;;;;4996741;28;20441;-72
2022/12/10 18:45:34;;;;;;;24.97;15.03;;;0.90;1.00;;;;;;5001958;28;20697;-72
2022/12/10 18:47:59;;;;;;;26.87;14.93;;;0.90;1.00;;;;;;4989112;28;20281;-74
2022/12/10 18:50:27;;;;;;;24.40;13.93;;;0.90;1.00;;;;;;4991363;28;20198;-72
2022/12/10 18:52:53;;;;;;;28.60;14.57;;;0.70;1.00;;;;;;5001475;28;20178;-72
2022/12/10 18:55:22;;;;;;;47.47;21.67;;;0.60;1.00;;;;;;4995033;28;20441;-74
2022/12/10 18:57:49;;;;;;;38.73;21.00;;;0.50;1.00;;;;;;5000550;28;20432;-74
2022/12/10 19:00:18;;;;;;;41.17;21.70;;;0.50;1.00;;;;;;4999122;28;21031;-72
2022/12/10 19:02:45;;;;;;;33.00;18.83;;;1.00;1.00;;;;;;4992632;28;20437;-73
2022/12/10 19:05:11;;;;;;;30.10;18.37;;;0.60;1.00;;;;;;4994198;28;20437;-73
2022/12/10 19:07:36;;;;;;;33.63;18.03;;;0.60;1.00;;;;;;5002065;28;20821;-70
2022/12/10 19:10:03;;;;;;;28.87;16.47;;;0.60;1.00;;;;;;5002380;28;20197;-69
2022/12/10 19:12:29;;;;;;;29.67;17.37;;;0.60;1.00;;;;;;4987624;28;20283;-73
2022/12/10 19:14:54;;;;;;;26.93;16.67;;;0.30;1.00;;;;;;5004780;28;20521;-72
2022/12/10 19:17:20;;;;;;;29.30;16.40;;;0.60;1.00;;;;;;4988983;28;20187;-72
2022/12/10 19:19:46;;;;;;;31.20;17.57;;;0.50;1.00;;;;;;4995153;28;20206;-72
2022/12/10 19:22:11;;;;;;;31.53;16.23;;;0.50;1.00;;;;;;5001270;28;20183;-72
2022/12/10 19:24:37;;;;;;;32.30;17.40;;;0.60;1.00;;;;;;4998420;28;20383;-72
2022/12/10 19:27:03;;;;;;;31.40;17.10;;;0.50;1.00;;;;;;5009440;28;20199;-72
2022/12/10 19:29:28;;;;;;;30.00;16.13;;;0.50;1.00;;;;;;4992064;28;20556;-72
2022/12/10 19:31:54;;;;;;;34.97;18.43;;;0.50;1.00;;;;;;4989145;28;20421;-72
2022/12/10 19:34:20;;;;;;;35.30;20.60;;;0.50;1.00;;;;;;4988880;28;20228;-72
2022/12/10 19:36:48;;;;;;;29.27;17.70;;;0.60;1.00;;;;;;4990409;28;20186;-72
2022/12/10 19:39:24;;;;;;;30.43;16.73;;;0.60;1.00;;;;;;4996123;28;20213;-72
2022/12/10 19:41:50;;;;;;;34.27;17.57;;;0.60;1.00;;;;;;4998342;28;20437;-73
2022/12/10 19:44:16;;;;;;;30.87;17.20;;;0.60;1.00;;;;;;4987652;28;20473;-72
2022/12/10 19:46:41;;;;;;;27.53;15.80;;;0.60;1.00;;;;;;5000770;28;20493;-72
2022/12/10 19:49:11;;;;;;;23.57;14.90;;;0.60;1.00;;;;;;4995396;28;20186;-73
2022/12/10 19:51:36;;;;;;;28.90;15.70;;;0.60;1.00;;;;;;4992258;28;20685;-72
2022/12/10 19:54:02;;;;;;;30.00;15.17;;;0.60;1.00;;;;;;4991566;28;20525;-74
2022/12/10 19:56:30;;;;;;;30.00;16.23;;;0.60;1.00;;;;;;4993783;28;20658;-72
2022/12/10 19:59:01;;;;;;;29.53;15.60;;;0.80;1.00;;;;;;5000740;28;20197;-73
2022/12/10 20:01:28;;;;;;;29.73;17.60;;;0.60;1.00;;;;;;5007792;28;20437;-72
2022/12/10 20:03:54;;;;;;;25.20;15.63;;;0.70;1.00;;;;;;5001741;28;20442;-72
2022/12/10 20:06:29;;;;;;;31.73;18.30;;;0.50;1.00;;;;;;4998490;28;20461;-72
2022/12/10 20:08:55;;;;;;;37.37;21.47;;;0.40;1.00;;;;;;4995662;28;20447;-72
2022/12/10 20:11:21;;;;;;;40.40;21.70;;;0.40;1.00;;;;;;5003730;28;20500;-72
2022/12/10 20:13:47;;;;;;;39.13;22.07;;;0.20;1.00;;;;;;4993288;28;20446;-72
2022/12/10 20:16:21;;;;;;;35.33;21.80;;;0.20;1.00;;;;;;4998074;28;20174;-72
2022/12/10 20:18:48;;;;;;;41.23;22.97;;;0.10;1.00;;;;;;4999404;28;20213;-74